createdAt,value
2018-08-31T00:02:06.557Z,15.56
2018-08-31T00:04:46.538Z,15.53
2018-08-31T00:07:32.272Z,15.48
2018-08-31T00:12:46.291Z,15.45
2018-08-31T00:15:15.297Z,15.35
2018-08-31T00:17:44.951Z,15.31
2018-08-31T00:20:15.024Z,15.28
2018-08-31T00:22:44.514Z,15.27
2018-08-31T00:25:24.332Z,15.24
2018-08-31T00:28:04.419Z,15.23
2018-08-31T00:30:44.213Z,15.22
2018-08-31T00:33:24.223Z,15.20
2018-08-31T00:36:04.622Z,15.16
2018-08-31T00:39:45.222Z,15.12
2018-08-31T00:42:25.305Z,15.07
2018-08-31T00:45:05.143Z,15.04
2018-08-31T00:47:33.937Z,15.01
2018-08-31T00:50:02.669Z,14.95
2018-08-31T00:52:31.407Z,14.91
2018-08-31T00:55:00.219Z,14.87
2018-08-31T00:57:28.959Z,14.82
2018-08-31T00:59:57.623Z,14.78
2018-08-31T01:02:26.808Z,14.74
2018-08-31T01:04:55.585Z,14.72
2018-08-31T01:07:24.377Z,14.69
2018-08-31T01:09:53.283Z,14.69
2018-08-31T01:12:22.392Z,14.71
2018-08-31T01:14:51.143Z,14.72
2018-08-31T01:17:20.982Z,14.75
2018-08-31T01:19:50.605Z,14.75
2018-08-31T01:22:19.451Z,14.74
2018-08-31T01:24:48.396Z,14.70
2018-08-31T01:27:17.368Z,14.65
2018-08-31T01:29:45.982Z,14.60
2018-08-31T01:32:15.183Z,14.57
2018-08-31T01:34:44.581Z,14.51
2018-08-31T01:37:13.188Z,14.48
2018-08-31T01:39:41.866Z,14.45
2018-08-31T01:42:10.829Z,14.43
2018-08-31T01:44:39.652Z,14.39
2018-08-31T01:47:08.353Z,14.37
2018-08-31T01:49:37.014Z,14.36
2018-08-31T01:52:05.701Z,14.30
2018-08-31T01:54:34.374Z,14.29
2018-08-31T01:57:03.050Z,14.27
2018-08-31T01:59:31.770Z,14.30
2018-08-31T02:02:00.494Z,14.25
2018-08-31T02:04:29.271Z,14.24
2018-08-31T02:06:58.262Z,14.21
2018-08-31T02:09:26.949Z,14.17
2018-08-31T02:11:56.647Z,14.13
2018-08-31T02:14:25.265Z,14.10
2018-08-31T02:16:53.930Z,14.04
2018-08-31T02:19:22.625Z,14.00
2018-08-31T02:21:51.374Z,13.95
2018-08-31T02:24:20.074Z,13.93
2018-08-31T02:26:48.817Z,13.87
2018-08-31T02:29:17.726Z,13.90
2018-08-31T02:31:46.378Z,13.92
2018-08-31T02:34:15.099Z,13.91
2018-08-31T02:36:44.403Z,13.85
2018-08-31T02:39:13.212Z,13.83
2018-08-31T02:41:41.826Z,13.75
2018-08-31T02:44:10.738Z,13.70
2018-08-31T02:46:40.170Z,13.62
2018-08-31T02:49:08.965Z,13.58
2018-08-31T02:51:37.982Z,13.56
2018-08-31T02:54:06.678Z,13.54
2018-08-31T02:56:36.258Z,13.51
2018-08-31T02:59:05.076Z,13.55
2018-08-31T03:01:33.771Z,13.58
2018-08-31T03:04:02.451Z,13.62
2018-08-31T03:06:31.388Z,13.70
2018-08-31T03:09:01.081Z,13.76
2018-08-31T03:11:30.725Z,13.83
2018-08-31T03:13:59.566Z,13.88
2018-08-31T03:16:29.443Z,13.93
2018-08-31T03:18:59.281Z,13.97
2018-08-31T03:21:28.043Z,14.00
2018-08-31T03:23:56.690Z,13.99
2018-08-31T03:26:26.083Z,13.99
2018-08-31T03:28:54.986Z,14.00
2018-08-31T03:31:24.210Z,13.99
2018-08-31T03:33:52.959Z,14.01
2018-08-31T03:36:22.589Z,14.01
2018-08-31T03:38:51.455Z,14.01
2018-08-31T03:41:20.374Z,14.02
2018-08-31T03:43:50.042Z,14.04
2018-08-31T03:46:18.825Z,14.08
2018-08-31T03:48:47.570Z,14.10
2018-08-31T03:51:16.245Z,14.14
2018-08-31T03:53:45.054Z,14.13
2018-08-31T03:56:13.745Z,14.13
2018-08-31T03:58:42.945Z,14.08
2018-08-31T04:01:11.617Z,14.06
2018-08-31T04:03:40.430Z,14.02
2018-08-31T04:06:09.038Z,14.01
2018-08-31T04:08:37.800Z,13.97
2018-08-31T04:11:06.954Z,13.97
2018-08-31T04:13:35.673Z,13.97
2018-08-31T04:16:04.346Z,13.96
2018-08-31T04:18:33.073Z,13.95
2018-08-31T04:21:01.741Z,13.90
2018-08-31T04:23:30.442Z,13.85
2018-08-31T04:25:59.284Z,13.83
2018-08-31T04:28:28.869Z,13.83
2018-08-31T04:30:57.749Z,13.83
2018-08-31T04:33:26.550Z,13.83
2018-08-31T04:35:59.218Z,13.86
2018-08-31T04:38:27.946Z,13.91
2018-08-31T04:40:57.049Z,13.94
2018-08-31T04:43:25.793Z,13.95
2018-08-31T04:45:54.407Z,13.97
2018-08-31T04:48:23.089Z,14.02
2018-08-31T04:50:51.775Z,14.05
2018-08-31T04:53:20.789Z,14.05
2018-08-31T04:55:49.453Z,14.09
2018-08-31T04:58:18.117Z,14.14
2018-08-31T05:00:46.924Z,14.18
2018-08-31T05:03:15.703Z,14.26
2018-08-31T05:05:44.753Z,14.33
2018-08-31T05:08:13.357Z,14.41
2018-08-31T05:10:42.106Z,14.49
2018-08-31T05:13:10.710Z,14.58
2018-08-31T05:15:39.324Z,14.65
2018-08-31T05:18:08.987Z,14.72
2018-08-31T05:20:37.595Z,14.75
2018-08-31T05:23:06.391Z,14.78
2018-08-31T05:25:35.077Z,14.79
2018-08-31T05:28:03.805Z,14.85
2018-08-31T05:30:32.972Z,14.87
2018-08-31T05:33:01.792Z,14.90
2018-08-31T05:35:30.426Z,14.92
2018-08-31T05:37:59.107Z,14.97
2018-08-31T05:40:27.826Z,15.03
2018-08-31T05:42:56.547Z,15.09
2018-08-31T05:45:26.329Z,15.16
2018-08-31T05:47:55.055Z,15.23
2018-08-31T05:50:23.725Z,15.32
2018-08-31T05:52:52.382Z,15.38
2018-08-31T05:55:21.099Z,15.46
2018-08-31T05:57:49.798Z,15.56
2018-08-31T06:00:18.499Z,15.63
2018-08-31T06:02:47.138Z,15.74
2018-08-31T06:05:15.834Z,15.80
2018-08-31T06:07:45.605Z,15.86
2018-08-31T06:10:14.265Z,15.89
2018-08-31T06:12:42.984Z,15.96
2018-08-31T06:15:11.584Z,15.98
2018-08-31T06:17:40.408Z,16.05
2018-08-31T06:20:09.441Z,16.09
2018-08-31T06:22:38.155Z,16.12
2018-08-31T06:25:07.304Z,16.10
2018-08-31T06:27:35.987Z,16.11
2018-08-31T06:30:05.396Z,16.15
2018-08-31T06:32:34.090Z,16.24
2018-08-31T06:35:02.810Z,16.26
2018-08-31T06:37:31.473Z,16.26
2018-08-31T06:40:00.185Z,16.30
2018-08-31T06:42:28.868Z,16.31
2018-08-31T06:44:57.553Z,16.40
2018-08-31T06:47:26.275Z,16.49
2018-08-31T06:49:55.090Z,16.51
2018-08-31T06:52:23.990Z,16.58
2018-08-31T06:54:52.685Z,16.65
2018-08-31T06:57:21.506Z,16.69
2018-08-31T06:59:51.411Z,16.70
2018-08-31T07:02:20.141Z,16.70
2018-08-31T07:04:49.870Z,16.77
2018-08-31T07:07:19.578Z,16.81
2018-08-31T07:09:49.273Z,16.83
2018-08-31T07:12:18.857Z,16.97
2018-08-31T07:14:47.609Z,17.08
2018-08-31T07:17:16.507Z,16.99
2018-08-31T07:19:45.788Z,17.06
2018-08-31T07:22:14.508Z,17.14
2018-08-31T07:24:43.197Z,17.11
2018-08-31T07:27:12.787Z,17.13
2018-08-31T07:29:41.481Z,17.18
2018-08-31T07:32:10.359Z,17.22
2018-08-31T07:34:39.273Z,17.23
2018-08-31T07:37:08.934Z,17.34
2018-08-31T07:39:37.594Z,17.46
2018-08-31T07:42:06.409Z,17.39
2018-08-31T07:44:35.049Z,17.38
2018-08-31T07:47:04.063Z,17.39
2018-08-31T07:49:32.741Z,17.41
2018-08-31T07:52:01.482Z,17.52
2018-08-31T07:54:30.128Z,17.56
2018-08-31T07:56:58.813Z,17.71
2018-08-31T07:59:27.537Z,17.91
2018-08-31T08:01:57.962Z,18.13
2018-08-31T08:04:26.836Z,18.09
2018-08-31T08:06:55.512Z,17.99
2018-08-31T08:09:24.136Z,17.91
2018-08-31T08:11:53.198Z,17.97
2018-08-31T08:14:22.006Z,17.98
2018-08-31T08:16:51.480Z,18.02
2018-08-31T08:19:20.253Z,18.22
2018-08-31T08:21:49.841Z,18.19
2018-08-31T08:24:18.693Z,18.27
2018-08-31T08:26:47.401Z,18.18
2018-08-31T08:29:16.093Z,18.20
2018-08-31T08:31:45.321Z,18.20
2018-08-31T08:34:14.304Z,18.36
2018-08-31T08:36:44.445Z,18.42
2018-08-31T08:39:14.201Z,18.46
2018-08-31T08:41:43.542Z,18.59
2018-08-31T08:44:12.906Z,18.55
2018-08-31T08:46:41.816Z,18.57
2018-08-31T08:49:10.613Z,18.68
2018-08-31T08:51:39.303Z,18.66
2018-08-31T08:54:07.939Z,18.42
2018-08-31T08:56:37.570Z,18.48
2018-08-31T08:59:06.804Z,18.63
2018-08-31T09:01:35.387Z,18.72
2018-08-31T09:04:04.179Z,18.79
2018-08-31T09:06:32.843Z,18.88
2018-08-31T09:09:01.594Z,19.05
2018-08-31T09:11:30.301Z,19.09
2018-08-31T09:13:59.050Z,19.15
2018-08-31T09:16:27.878Z,19.12
2018-08-31T09:18:58.603Z,19.28
2018-08-31T09:21:28.319Z,19.40
2018-08-31T09:23:57.648Z,19.44
2018-08-31T09:26:27.240Z,19.43
2018-08-31T09:28:56.330Z,19.58
2018-08-31T09:31:25.941Z,19.68
2018-08-31T09:33:55.335Z,19.81
2018-08-31T09:36:24.782Z,19.86
2018-08-31T09:38:53.537Z,20.06
2018-08-31T09:41:22.254Z,20.33
2018-08-31T09:43:51.296Z,20.45
2018-08-31T09:46:20.125Z,20.37
2018-08-31T09:48:48.936Z,20.23
2018-08-31T09:51:17.593Z,20.08
2018-08-31T09:53:46.392Z,20.16
2018-08-31T09:56:15.185Z,20.34
2018-08-31T09:58:43.783Z,20.39
2018-08-31T10:01:17.486Z,20.26
2018-08-31T10:03:46.154Z,20.06
2018-08-31T10:06:15.041Z,19.89
2018-08-31T10:08:43.825Z,19.93
2018-08-31T10:11:12.660Z,20.03
2018-08-31T10:13:41.481Z,20.11
2018-08-31T10:16:10.207Z,20.19
2018-08-31T10:18:39.871Z,20.22
2018-08-31T10:23:42.801Z,20.48
2018-08-31T10:26:11.541Z,20.40
2018-08-31T10:28:40.485Z,20.51
2018-08-31T10:31:10.193Z,20.55
2018-08-31T10:33:38.934Z,20.65
2018-08-31T10:36:07.764Z,20.73
2018-08-31T10:38:36.437Z,20.84
2018-08-31T10:41:06.373Z,20.82
2018-08-31T10:43:35.689Z,20.79
2018-08-31T10:46:04.442Z,21.00
2018-08-31T10:48:33.034Z,21.24
2018-08-31T10:51:01.704Z,21.38
2018-08-31T10:53:31.010Z,21.39
2018-08-31T10:55:59.720Z,21.33
2018-08-31T10:58:28.421Z,21.45
2018-08-31T11:00:57.096Z,21.58
2018-08-31T11:03:25.963Z,21.63
2018-08-31T11:05:54.846Z,21.82
2018-08-31T11:08:24.270Z,22.15
2018-08-31T11:10:52.992Z,22.45
2018-08-31T11:13:23.236Z,22.55
2018-08-31T11:15:52.489Z,22.80
2018-08-31T11:18:21.106Z,23.17
2018-08-31T11:20:49.800Z,23.27
2018-08-31T11:23:18.405Z,23.19
2018-08-31T11:25:47.275Z,23.56
2018-08-31T11:28:15.901Z,24.19
2018-08-31T11:30:44.662Z,25.01
2018-08-31T11:33:13.264Z,25.12
2018-08-31T11:35:41.911Z,24.56
2018-08-31T11:38:10.520Z,24.47
2018-08-31T11:40:39.186Z,24.52
2018-08-31T11:43:07.805Z,24.44
2018-08-31T11:45:37.111Z,24.23
2018-08-31T11:48:06.420Z,24.37
2018-08-31T11:50:35.086Z,24.52
2018-08-31T11:53:03.894Z,24.37
2018-08-31T11:55:32.789Z,24.39
2018-08-31T11:58:01.589Z,24.63
2018-08-31T12:00:31.033Z,25.34
2018-08-31T12:02:59.654Z,25.83
2018-08-31T12:05:28.342Z,26.57
2018-08-31T12:07:57.137Z,26.66
2018-08-31T12:10:25.846Z,26.22
2018-08-31T12:12:54.537Z,25.92
2018-08-31T12:15:23.241Z,25.75
2018-08-31T12:17:51.885Z,25.33
2018-08-31T12:20:20.465Z,24.57
2018-08-31T12:22:49.417Z,24.50
2018-08-31T12:25:18.076Z,25.06
2018-08-31T12:27:46.918Z,25.76
2018-08-31T12:30:16.192Z,26.40
2018-08-31T12:32:45.463Z,27.26
2018-08-31T12:35:14.289Z,27.05
2018-08-31T12:37:42.980Z,27.04
2018-08-31T12:40:11.672Z,26.96
2018-08-31T12:42:40.506Z,27.02
2018-08-31T12:45:09.249Z,27.29
2018-08-31T12:47:38.459Z,26.92
2018-08-31T12:50:07.091Z,26.82
2018-08-31T12:52:36.900Z,27.44
2018-08-31T12:55:05.690Z,28.27
2018-08-31T12:57:34.483Z,28.85
2018-08-31T13:00:04.264Z,29.59
2018-08-31T13:02:33.066Z,29.55
2018-08-31T13:05:02.382Z,28.49
2018-08-31T13:07:30.965Z,27.99
2018-08-31T13:09:59.602Z,28.04
2018-08-31T13:12:28.389Z,28.76
2018-08-31T13:14:57.109Z,29.53
2018-08-31T13:19:59.825Z,29.45
2018-08-31T13:22:28.449Z,29.90
2018-08-31T13:24:57.169Z,29.42
2018-08-31T13:27:25.821Z,28.43
2018-08-31T13:29:54.635Z,28.60
2018-08-31T13:32:23.366Z,28.54
2018-08-31T13:34:52.125Z,27.99
2018-08-31T13:37:20.979Z,27.72
2018-08-31T13:39:49.611Z,27.63
2018-08-31T13:42:18.398Z,27.28
2018-08-31T13:44:47.741Z,26.86
2018-08-31T13:47:16.381Z,26.93
2018-08-31T13:49:45.077Z,27.21
2018-08-31T13:52:14.906Z,26.86
2018-08-31T13:54:45.507Z,26.53
2018-08-31T13:57:14.537Z,26.01
2018-08-31T13:59:43.507Z,25.76
2018-08-31T14:02:13.914Z,25.54
2018-08-31T14:04:43.906Z,25.46
2018-08-31T14:07:13.511Z,25.51
2018-08-31T14:09:44.512Z,25.42
2018-08-31T14:12:13.483Z,25.76
2018-08-31T14:14:43.090Z,26.41
2018-08-31T14:17:11.773Z,27.34
2018-08-31T14:19:40.529Z,28.01
2018-08-31T14:22:09.258Z,28.57
2018-08-31T14:24:37.953Z,29.07
2018-08-31T14:27:06.586Z,29.59
2018-08-31T14:29:35.319Z,29.35
2018-08-31T14:32:03.977Z,29.90
2018-08-31T14:34:32.724Z,29.90
2018-08-31T14:37:01.413Z,30.03
2018-08-31T14:39:30.080Z,30.35
2018-08-31T14:41:58.830Z,30.24
2018-08-31T14:44:27.511Z,29.89
2018-08-31T14:46:56.243Z,29.94
2018-08-31T14:49:25.172Z,29.99
2018-08-31T14:51:54.813Z,29.77
2018-08-31T14:54:23.781Z,29.57
2018-08-31T14:56:52.450Z,29.26
2018-08-31T14:59:21.157Z,29.04
2018-08-31T15:01:50.813Z,28.93
2018-08-31T15:04:19.737Z,28.67
2018-08-31T15:06:49.400Z,28.28
2018-08-31T15:09:18.078Z,27.42
2018-08-31T15:11:46.854Z,27.06
2018-08-31T15:14:16.826Z,26.99
2018-08-31T15:16:45.573Z,26.31
2018-08-31T15:19:14.290Z,26.06
2018-08-31T15:21:43.789Z,26.22
2018-08-31T15:24:12.499Z,26.22
2018-08-31T15:26:41.345Z,26.40
2018-08-31T15:29:10.414Z,26.69
2018-08-31T15:31:39.171Z,26.72
2018-08-31T15:34:07.977Z,26.83
2018-08-31T15:36:36.785Z,26.90
2018-08-31T15:39:07.809Z,26.81
2018-08-31T15:41:36.700Z,26.56
2018-08-31T15:44:05.538Z,26.47
2018-08-31T15:46:34.367Z,26.44
2018-08-31T15:49:03.004Z,26.64
2018-08-31T15:51:32.168Z,26.58
2018-08-31T15:54:00.922Z,26.52
2018-08-31T15:56:29.566Z,26.58
2018-08-31T15:58:58.395Z,26.41
2018-08-31T16:01:27.017Z,26.33
2018-08-31T16:03:55.694Z,26.28
2018-08-31T16:06:24.341Z,26.25
2018-08-31T16:08:53.009Z,26.23
2018-08-31T16:11:21.710Z,26.07
2018-08-31T16:13:50.738Z,25.74
2018-08-31T16:16:19.537Z,25.35
2018-08-31T16:18:48.359Z,24.87
2018-08-31T16:21:16.959Z,24.51
2018-08-31T16:23:45.950Z,24.20
2018-08-31T16:26:14.716Z,23.94
2018-08-31T16:28:44.243Z,23.85
2018-08-31T16:31:13.011Z,23.74
2018-08-31T16:33:42.175Z,23.60
2018-08-31T16:36:10.954Z,23.42
2018-08-31T16:38:40.065Z,23.19
2018-08-31T16:41:09.025Z,22.94
2018-08-31T16:43:37.617Z,22.69
2018-08-31T16:46:07.007Z,22.45
2018-08-31T16:48:35.670Z,22.24
2018-08-31T16:51:04.410Z,22.06
2018-08-31T16:53:33.042Z,21.90
2018-08-31T16:56:01.821Z,21.78
2018-08-31T16:58:30.490Z,21.67
2018-08-31T17:00:59.169Z,21.57
2018-08-31T17:03:27.962Z,21.48
2018-08-31T17:05:56.612Z,21.35
2018-08-31T17:08:25.379Z,21.23
2018-08-31T17:10:54.352Z,21.11
2018-08-31T17:13:24.044Z,20.98
2018-08-31T17:15:59.332Z,20.86
2018-08-31T17:18:28.189Z,20.75
2018-08-31T17:20:56.866Z,20.66
2018-08-31T17:23:25.565Z,20.50
2018-08-31T17:25:54.366Z,20.38
2018-08-31T17:28:28.315Z,20.26
2018-08-31T17:31:02.378Z,20.14
2018-08-31T17:33:37.590Z,20.02
2018-08-31T17:36:11.962Z,19.92
2018-08-31T17:38:40.857Z,19.82
2018-08-31T17:41:09.518Z,19.76
2018-08-31T17:43:38.187Z,19.68
2018-08-31T17:46:06.848Z,19.61
2018-08-31T17:48:35.568Z,19.58
2018-08-31T17:51:04.423Z,19.53
2018-08-31T17:53:33.150Z,19.46
2018-08-31T17:56:01.832Z,19.41
2018-08-31T17:58:30.638Z,19.37
2018-08-31T18:00:59.302Z,19.33
2018-08-31T18:03:28.187Z,19.30
2018-08-31T18:05:56.940Z,19.29
2018-08-31T18:08:25.929Z,19.28
2018-08-31T18:10:54.618Z,19.24
2018-08-31T18:13:23.373Z,19.24
2018-08-31T18:15:55.215Z,19.21
2018-08-31T18:18:24.030Z,19.18
2018-08-31T18:20:52.923Z,19.15
2018-08-31T18:23:21.673Z,19.12
2018-08-31T18:25:50.699Z,19.11
2018-08-31T18:28:20.353Z,19.11
2018-08-31T18:30:49.403Z,19.11
2018-08-31T18:33:19.625Z,19.11
2018-08-31T18:35:48.870Z,19.08
2018-08-31T18:38:18.122Z,19.04
2018-08-31T18:40:47.903Z,18.98
2018-08-31T18:43:16.893Z,18.93
2018-08-31T18:45:45.707Z,18.87
2018-08-31T18:48:14.725Z,18.78
2018-08-31T18:50:43.681Z,18.72
2018-08-31T18:53:12.345Z,18.71
2018-08-31T18:55:41.834Z,18.67
2018-08-31T18:58:10.512Z,18.64
2018-08-31T19:00:39.253Z,18.58
2018-08-31T19:03:08.149Z,18.52
2018-08-31T19:05:36.963Z,18.46
2018-08-31T19:08:05.682Z,18.43
2018-08-31T19:10:34.329Z,18.44
2018-08-31T19:13:03.143Z,18.44
2018-08-31T19:15:32.066Z,18.45
2018-08-31T19:18:02.138Z,18.44
2018-08-31T19:20:31.084Z,18.44
2018-08-31T19:23:00.053Z,18.41
2018-08-31T19:25:29.254Z,18.39
2018-08-31T19:27:57.969Z,18.34
2018-08-31T19:30:26.845Z,18.32
2018-08-31T19:32:56.168Z,18.27
2018-08-31T19:35:24.948Z,18.22
2018-08-31T19:37:53.609Z,18.22
2018-08-31T19:40:22.466Z,18.23
2018-08-31T19:42:52.158Z,18.25
2018-08-31T19:45:20.869Z,18.26
2018-08-31T19:47:50.526Z,18.27
2018-08-31T19:50:19.207Z,18.28
2018-08-31T19:52:47.988Z,18.28
2018-08-31T19:55:16.940Z,18.24
2018-08-31T19:57:45.640Z,18.21
2018-08-31T20:00:14.494Z,18.18
2018-08-31T20:02:43.270Z,18.14
2018-08-31T20:05:13.034Z,18.11
2018-08-31T20:07:41.733Z,18.11
2018-08-31T20:10:11.899Z,18.10
2018-08-31T20:12:41.190Z,18.12
2018-08-31T20:15:10.131Z,18.09
2018-08-31T20:17:38.902Z,18.06
2018-08-31T20:20:07.591Z,18.03
2018-08-31T20:22:36.814Z,18.00
2018-08-31T20:25:05.633Z,18.04
2018-08-31T20:27:34.426Z,18.06
2018-08-31T20:30:04.421Z,18.07
2018-08-31T20:32:33.141Z,18.12
2018-08-31T20:35:01.914Z,18.07
2018-08-31T20:37:32.273Z,18.01
2018-08-31T20:40:01.151Z,17.93
2018-08-31T20:42:29.862Z,17.86
2018-08-31T20:44:58.707Z,17.81
2018-08-31T20:47:27.417Z,17.77
2018-08-31T20:49:56.232Z,17.71
2018-08-31T20:52:25.029Z,17.69
2018-08-31T20:54:53.792Z,17.73
2018-08-31T20:57:22.905Z,17.72
2018-08-31T20:59:51.762Z,17.71
2018-08-31T21:02:20.729Z,17.72
2018-08-31T21:04:49.673Z,17.74
2018-08-31T21:07:18.389Z,17.71
2018-08-31T21:09:48.217Z,17.70
2018-08-31T21:12:17.486Z,17.65
2018-08-31T21:14:46.151Z,17.64
2018-08-31T21:17:14.966Z,17.60
2018-08-31T21:19:44.149Z,17.56
2018-08-31T21:22:13.381Z,17.50
2018-08-31T21:24:42.165Z,17.49
2018-08-31T21:27:10.753Z,17.52
2018-08-31T21:29:39.556Z,17.51
2018-08-31T21:32:08.264Z,17.47
2018-08-31T21:34:37.133Z,17.42
2018-08-31T21:37:06.746Z,17.38
2018-08-31T21:39:35.369Z,17.35
2018-08-31T21:42:04.354Z,17.31
2018-08-31T21:44:33.137Z,17.29
2018-08-31T21:47:01.825Z,17.26
2018-08-31T21:49:43.908Z,17.19
2018-08-31T21:52:12.813Z,17.16
2018-08-31T21:57:15.726Z,17.15
2018-08-31T21:59:44.625Z,17.14
2018-08-31T22:02:13.473Z,17.14
2018-08-31T22:04:42.294Z,17.14
2018-08-31T22:07:11.105Z,17.16
2018-08-31T22:09:39.997Z,17.18
2018-08-31T22:12:08.901Z,17.17
2018-08-31T22:14:37.557Z,17.15
2018-08-31T22:17:06.457Z,17.13
2018-08-31T22:19:35.363Z,17.13
2018-08-31T22:22:04.166Z,17.12
2018-08-31T22:24:33.051Z,17.13
2018-08-31T22:27:01.679Z,17.14
2018-08-31T22:29:30.723Z,17.15
2018-08-31T22:32:00.551Z,17.15
2018-08-31T22:34:29.508Z,17.19
2018-08-31T22:36:59.986Z,17.17
2018-08-31T22:39:28.887Z,17.16
2018-08-31T22:41:58.166Z,17.15
2018-08-31T22:44:26.952Z,17.14
2018-08-31T22:46:55.874Z,17.10
2018-08-31T22:49:24.777Z,17.08
2018-08-31T22:51:53.647Z,17.07
2018-08-31T22:54:23.141Z,17.05
2018-08-31T22:56:51.767Z,17.04
2018-08-31T22:59:21.057Z,17.02
2018-08-31T23:01:49.708Z,17.00
2018-08-31T23:04:20.219Z,16.99
2018-08-31T23:06:49.900Z,17.03
2018-08-31T23:09:18.672Z,17.06
2018-08-31T23:11:48.362Z,17.05
2018-08-31T23:14:17.393Z,17.04
2018-08-31T23:16:45.991Z,17.05
2018-08-31T23:19:14.787Z,17.06
2018-08-31T23:21:43.445Z,17.04
2018-08-31T23:24:12.443Z,17.07
2018-08-31T23:26:42.527Z,17.07
2018-08-31T23:29:11.253Z,17.07
2018-08-31T23:31:40.133Z,17.12
2018-08-31T23:34:08.756Z,17.10
2018-08-31T23:36:37.613Z,17.10
2018-08-31T23:39:08.519Z,17.14
2018-08-31T23:41:37.982Z,17.12
2018-08-31T23:44:06.871Z,17.11
2018-08-31T23:46:36.016Z,17.12
2018-08-31T23:49:04.973Z,17.11
2018-08-31T23:51:34.598Z,17.09
2018-08-31T23:54:04.371Z,17.10
2018-08-31T23:56:34.407Z,17.09
2018-08-31T23:59:03.865Z,17.04
